Time;durP1;ratioP1;P1;durP2;ratioP2;P2;SDS_P1;SDS_P2;PMS_P1;PMS_P2;Temp;Humidity;BMP_temperature;BMP_pressure;BME280_temperature;BME280_humidity;BME280_pressure;Samples;Min_cycle;Max_cycle;Signal;HPM_P1;HPM_P2
2022/07/06 00:01:20;;;;;;;0.00;0.00;;;14.20;99.90;;;;;;4963188;28;20584;-63
2022/07/06 00:03:46;;;;;;;0.00;0.00;;;14.20;99.90;;;;;;4963364;28;20047;-63
2022/07/06 00:06:12;;;;;;;0.00;0.00;;;14.20;99.90;;;;;;4962895;28;20038;-63
2022/07/06 00:08:38;;;;;;;0.00;0.00;;;14.20;99.90;;;;;;4962622;28;20695;-63
2022/07/06 00:11:05;;;;;;;0.00;0.00;;;14.20;99.90;;;;;;4963445;28;20103;-63
2022/07/06 00:13:31;;;;;;;0.00;0.00;;;14.20;99.90;;;;;;4962910;28;20134;-64
2022/07/06 00:15:57;;;;;;;0.00;0.00;;;14.20;99.90;;;;;;4962705;28;20039;-64
2022/07/06 00:18:23;;;;;;;0.00;0.00;;;14.20;99.90;;;;;;4962917;28;20585;-64
2022/07/06 00:20:48;;;;;;;0.00;0.00;;;14.10;99.90;;;;;;4962450;28;20050;-63
2022/07/06 00:23:14;;;;;;;0.00;0.00;;;14.20;99.90;;;;;;4963391;28;20058;-63
2022/07/06 00:25:40;;;;;;;0.00;0.00;;;14.30;99.90;;;;;;4962818;28;20112;-63
2022/07/06 00:28:06;;;;;;;0.00;0.00;;;14.30;99.90;;;;;;4963223;28;20054;-65
2022/07/06 00:30:31;;;;;;;0.00;0.00;;;14.30;99.90;;;;;;4963168;28;20053;-64
2022/07/06 00:32:58;;;;;;;0.00;0.00;;;14.40;99.90;;;;;;4962693;28;20054;-63
2022/07/06 00:35:25;;;;;;;0.00;0.00;;;14.40;99.90;;;;;;4962064;28;20047;-63
2022/07/06 00:37:50;;;;;;;0.00;0.00;;;14.40;99.90;;;;;;4962996;28;20417;-63
2022/07/06 00:40:16;;;;;;;0.00;0.00;;;14.40;99.90;;;;;;4963175;28;20046;-63
2022/07/06 00:42:43;;;;;;;0.00;0.00;;;14.50;99.90;;;;;;4962904;28;20054;-63
2022/07/06 00:45:10;;;;;;;0.00;0.00;;;14.40;99.90;;;;;;4969942;28;20043;-63
2022/07/06 00:47:36;;;;;;;0.00;0.00;;;14.30;99.90;;;;;;4966245;28;20061;-63
2022/07/06 00:50:22;;;;;;;0.00;0.00;;;14.20;99.90;;;;;;4962313;28;20054;-63
2022/07/06 00:52:49;;;;;;;0.00;0.00;;;14.20;99.90;;;;;;4962946;28;20035;-63
2022/07/06 00:55:16;;;;;;;0.00;0.00;;;14.20;99.90;;;;;;4963438;28;20043;-63
2022/07/06 00:57:42;;;;;;;0.00;0.00;;;14.20;99.90;;;;;;4962686;28;20054;-63
2022/07/06 01:00:11;;;;;;;0.00;0.00;;;14.20;99.90;;;;;;4962787;28;20457;-64
2022/07/06 01:02:37;;;;;;;0.00;0.00;;;14.20;99.90;;;;;;4986652;23;20532;-63
2022/07/06 01:05:09;;;;;;;0.00;0.00;;;14.20;99.90;;;;;;4984930;28;20082;-64
2022/07/06 01:07:36;;;;;;;0.00;0.00;;;14.20;99.90;;;;;;4973101;28;20461;-64
2022/07/06 01:10:06;;;;;;;0.00;0.00;;;14.10;99.90;;;;;;4966286;28;20058;-62
2022/07/06 01:12:34;;;;;;;0.00;0.00;;;14.20;99.90;;;;;;4966095;28;20118;-63
2022/07/06 01:15:00;;;;;;;0.00;0.00;;;14.30;99.90;;;;;;4966085;28;20046;-62
2022/07/06 01:17:26;;;;;;;0.00;0.00;;;14.20;99.90;;;;;;4965755;28;20429;-62
2022/07/06 01:19:51;;;;;;;0.00;0.00;;;14.20;99.90;;;;;;4965504;28;20043;-62
2022/07/06 01:22:18;;;;;;;0.00;0.00;;;14.20;99.90;;;;;;4964076;28;20134;-64
2022/07/06 01:24:43;;;;;;;0.00;0.00;;;14.10;99.90;;;;;;4966721;28;20050;-62
2022/07/06 01:27:09;;;;;;;0.00;0.00;;;14.20;99.90;;;;;;4966177;28;20054;-65
2022/07/06 01:29:35;;;;;;;0.00;0.00;;;14.20;99.90;;;;;;4964583;28;20043;-64
2022/07/06 01:32:01;;;;;;;0.00;0.00;;;14.10;99.90;;;;;;4965138;28;20047;-62
2022/07/06 01:34:27;;;;;;;0.00;0.00;;;14.10;99.90;;;;;;4965827;28;20061;-62
2022/07/06 01:36:54;;;;;;;0.00;0.00;;;14.00;99.90;;;;;;4965441;28;20057;-63
2022/07/06 01:39:20;;;;;;;0.00;0.00;;;14.00;99.90;;;;;;4965193;28;20050;-62
2022/07/06 01:41:46;;;;;;;0.00;0.00;;;14.00;99.90;;;;;;4965914;28;20043;-62
2022/07/06 01:44:12;;;;;;;0.00;0.00;;;14.00;99.90;;;;;;4971081;28;20081;-63
2022/07/06 01:46:38;;;;;;;0.00;0.00;;;13.90;99.90;;;;;;4984599;28;20067;-63
2022/07/06 01:49:04;;;;;;;0.00;0.00;;;13.90;99.90;;;;;;4984354;28;20113;-63
2022/07/06 01:51:30;;;;;;;0.00;0.00;;;13.80;99.90;;;;;;4984121;28;20049;-62
2022/07/06 01:53:56;;;;;;;0.00;0.00;;;13.80;99.90;;;;;;4984873;28;20046;-62
2022/07/06 01:56:21;;;;;;;0.00;0.00;;;13.80;99.90;;;;;;4984695;28;20053;-63
2022/07/06 01:58:47;;;;;;;0.00;0.00;;;13.70;99.90;;;;;;4984188;28;20050;-62
2022/07/06 02:01:16;;;;;;;0.00;0.00;;;13.70;99.90;;;;;;4984849;28;20050;-62
2022/07/06 02:03:42;;;;;;;0.00;0.00;;;13.70;99.90;;;;;;4985061;28;20057;-62
2022/07/06 02:06:09;;;;;;;0.00;0.00;;;13.80;99.90;;;;;;4983423;28;20336;-62
2022/07/06 02:08:35;;;;;;;0.00;0.00;;;13.80;99.90;;;;;;4983153;28;20051;-62
2022/07/06 02:11:02;;;;;;;0.00;0.00;;;13.80;99.90;;;;;;4984406;28;20109;-62
2022/07/06 02:13:28;;;;;;;0.00;0.00;;;13.90;99.90;;;;;;4984064;28;20046;-65
2022/07/06 02:15:54;;;;;;;0.00;0.00;;;13.90;99.90;;;;;;4982671;28;20062;-62
2022/07/06 02:18:20;;;;;;;0.00;0.00;;;13.90;99.90;;;;;;4984250;28;20057;-64
2022/07/06 02:20:45;;;;;;;0.00;0.00;;;13.90;99.90;;;;;;4984096;28;20121;-62
2022/07/06 02:23:11;;;;;;;0.00;0.00;;;13.90;99.90;;;;;;4982891;28;20057;-63
2022/07/06 02:25:37;;;;;;;0.00;0.00;;;13.90;99.90;;;;;;4984081;28;20046;-63
2022/07/06 02:28:03;;;;;;;0.00;0.00;;;13.90;99.90;;;;;;4983983;28;20046;-63
2022/07/06 02:30:28;;;;;;;0.00;0.00;;;13.90;99.90;;;;;;4984093;28;20246;-62
2022/07/06 02:32:54;;;;;;;0.00;0.00;;;13.90;99.90;;;;;;4983548;28;20053;-62
2022/07/06 02:35:20;;;;;;;0.00;0.00;;;13.80;99.90;;;;;;4983354;28;20050;-62
2022/07/06 02:37:45;;;;;;;0.00;0.00;;;13.90;99.90;;;;;;4984388;28;20046;-62
2022/07/06 02:40:11;;;;;;;0.00;0.00;;;13.80;99.90;;;;;;4983054;28;20213;-62
2022/07/06 02:42:37;;;;;;;0.00;0.00;;;13.80;99.90;;;;;;4983166;28;20057;-62
2022/07/06 02:45:03;;;;;;;0.00;0.00;;;13.90;99.90;;;;;;4983594;28;20046;-62
2022/07/06 02:47:29;;;;;;;0.00;0.00;;;13.80;99.90;;;;;;4983514;28;20197;-62
2022/07/06 02:49:55;;;;;;;0.00;0.00;;;13.80;99.90;;;;;;4983433;28;20141;-63
2022/07/06 02:52:21;;;;;;;0.00;0.00;;;13.80;99.90;;;;;;4983175;28;20255;-62
2022/07/06 02:54:48;;;;;;;0.00;0.00;;;13.80;99.90;;;;;;4983921;28;20050;-64
2022/07/06 02:57:14;;;;;;;0.00;0.00;;;13.90;99.90;;;;;;4984176;28;20081;-62
2022/07/06 02:59:40;;;;;;;0.00;0.00;;;13.80;99.90;;;;;;4981954;28;20118;-64
2022/07/06 03:02:06;;;;;;;0.00;0.00;;;13.90;99.90;;;;;;4983549;28;20636;-63
2022/07/06 03:04:32;;;;;;;0.00;0.00;;;13.90;99.90;;;;;;4982885;28;20389;-63
2022/07/06 03:06:58;;;;;;;0.00;0.00;;;13.90;99.90;;;;;;4983455;28;20039;-62
2022/07/06 03:09:24;;;;;;;0.00;0.00;;;13.80;99.90;;;;;;4982807;28;20073;-62
2022/07/06 03:11:50;;;;;;;0.00;0.00;;;13.80;99.90;;;;;;4983341;28;20069;-62
2022/07/06 03:14:15;;;;;;;0.00;0.00;;;13.80;99.90;;;;;;4983182;28;20568;-62
2022/07/06 03:16:41;;;;;;;0.00;0.00;;;13.70;99.90;;;;;;4983312;28;20053;-63
2022/07/06 03:19:07;;;;;;;0.00;0.00;;;13.70;99.90;;;;;;4982630;28;20501;-62
2022/07/06 03:21:32;;;;;;;0.00;0.00;;;13.60;99.90;;;;;;4982362;28;20419;-63
2022/07/06 03:23:58;;;;;;;0.00;0.00;;;13.60;99.90;;;;;;4983164;28;20061;-62
2022/07/06 03:26:24;;;;;;;0.00;0.00;;;13.50;99.90;;;;;;4982399;28;20034;-62
2022/07/06 03:28:49;;;;;;;0.00;0.00;;;13.50;99.90;;;;;;4983082;28;20673;-62
2022/07/06 03:31:15;;;;;;;0.00;0.00;;;13.40;99.90;;;;;;4983252;28;20077;-62
2022/07/06 03:33:41;;;;;;;0.00;0.00;;;13.30;99.90;;;;;;4983050;28;20050;-62
2022/07/06 03:36:07;;;;;;;0.00;0.00;;;13.30;99.90;;;;;;4981973;28;20046;-63
2022/07/06 03:38:33;;;;;;;0.00;0.00;;;13.20;99.90;;;;;;4982630;28;20512;-63
2022/07/06 03:40:59;;;;;;;0.00;0.00;;;13.10;99.90;;;;;;4983070;28;20050;-62
2022/07/06 03:43:25;;;;;;;0.00;0.00;;;13.10;99.90;;;;;;4982699;28;20053;-62
2022/07/06 03:45:50;;;;;;;0.00;0.00;;;13.10;99.90;;;;;;4981939;28;20044;-63
2022/07/06 03:48:16;;;;;;;0.00;0.00;;;13.00;99.90;;;;;;4981448;28;20501;-62
2022/07/06 03:50:42;;;;;;;0.00;0.00;;;13.00;99.90;;;;;;4982645;28;20042;-61
2022/07/06 03:53:07;;;;;;;0.00;0.00;;;12.90;99.90;;;;;;4981017;28;20050;-62
2022/07/06 03:55:33;;;;;;;0.00;0.00;;;13.00;99.90;;;;;;4982758;28;20086;-62
2022/07/06 03:57:58;;;;;;;0.00;0.00;;;12.90;99.90;;;;;;4981525;28;20102;-62
2022/07/06 04:00:24;;;;;;;0.00;0.00;;;12.90;99.90;;;;;;4982394;28;20401;-62
2022/07/06 04:02:50;;;;;;;0.00;0.00;;;12.80;99.90;;;;;;4982032;28;20071;-62
2022/07/06 04:05:20;;;;;;;0.00;0.00;;;12.80;99.90;;;;;;4982063;28;20054;-62
2022/07/06 04:07:49;;;;;;;0.00;0.00;;;12.90;99.90;;;;;;4982680;28;20402;-62
2022/07/06 04:10:16;;;;;;;0.00;0.00;;;12.90;99.90;;;;;;4982594;28;20050;-62
2022/07/06 04:12:43;;;;;;;0.00;0.00;;;13.00;99.90;;;;;;4981816;28;20031;-62
2022/07/06 04:15:09;;;;;;;0.00;0.00;;;12.80;99.90;;;;;;4981360;28;20100;-63
2022/07/06 04:17:54;;;;;;;0.00;0.00;;;12.80;99.90;;;;;;4982744;28;20051;-63
2022/07/06 04:20:20;;;;;;;0.00;0.00;;;12.80;99.90;;;;;;4981786;28;20096;-62
2022/07/06 04:22:47;;;;;;;0.00;0.00;;;12.90;99.90;;;;;;4982531;28;20049;-62
2022/07/06 04:25:12;;;;;;;0.00;0.00;;;12.80;99.90;;;;;;4982657;28;20089;-62
2022/07/06 04:27:38;;;;;;;0.00;0.00;;;12.70;99.90;;;;;;4982324;28;20085;-62
2022/07/06 04:30:05;;;;;;;0.00;0.00;;;12.80;99.90;;;;;;4982600;28;20039;-62
2022/07/06 04:32:31;;;;;;;0.00;0.00;;;12.70;99.90;;;;;;4982043;28;20038;-62
2022/07/06 04:34:57;;;;;;;0.03;0.03;;;12.90;99.90;;;;;;4979803;28;20108;-62
2022/07/06 04:37:23;;;;;;;0.00;0.00;;;12.70;99.90;;;;;;4984221;28;20042;-63
2022/07/06 04:39:48;;;;;;;0.00;0.00;;;12.70;99.90;;;;;;4986427;28;20042;-62
2022/07/06 04:42:14;;;;;;;0.00;0.00;;;12.70;99.90;;;;;;4985497;28;20104;-62
2022/07/06 04:44:39;;;;;;;0.00;0.00;;;12.90;99.90;;;;;;4983782;28;20498;-63
2022/07/06 04:47:05;;;;;;;0.00;0.00;;;12.80;99.90;;;;;;4986229;28;20050;-63
2022/07/06 04:49:31;;;;;;;0.00;0.00;;;12.90;99.90;;;;;;4985631;28;20448;-62
2022/07/06 04:51:57;;;;;;;0.00;0.00;;;13.00;99.90;;;;;;4985937;28;20657;-62
2022/07/06 04:54:23;;;;;;;0.00;0.00;;;13.00;99.90;;;;;;4985404;28;20054;-63
2022/07/06 04:56:48;;;;;;;0.00;0.00;;;13.10;99.90;;;;;;4986087;28;20050;-65
2022/07/06 04:59:14;;;;;;;0.00;0.00;;;13.10;99.90;;;;;;4986484;28;20049;-63
2022/07/06 05:01:43;;;;;;;0.00;0.00;;;13.20;99.90;;;;;;4985055;28;20526;-63
2022/07/06 05:04:08;;;;;;;0.00;0.00;;;13.50;99.90;;;;;;4985422;28;20063;-64
2022/07/06 05:06:34;;;;;;;0.00;0.00;;;14.10;99.90;;;;;;4985637;28;20077;-63
2022/07/06 05:09:00;;;;;;;0.00;0.00;;;14.50;99.90;;;;;;4985843;28;20042;-63
2022/07/06 05:11:26;;;;;;;0.00;0.00;;;14.60;99.90;;;;;;4985274;28;20089;-63
2022/07/06 05:13:52;;;;;;;0.00;0.00;;;14.40;99.90;;;;;;4985393;28;20074;-64
2022/07/06 05:16:18;;;;;;;0.00;0.00;;;14.30;99.90;;;;;;4985127;28;20401;-63
2022/07/06 05:18:44;;;;;;;0.00;0.00;;;14.10;99.90;;;;;;4984655;28;20611;-61
2022/07/06 05:21:09;;;;;;;0.00;0.00;;;14.00;99.90;;;;;;4984469;28;20035;-63
2022/07/06 05:23:35;;;;;;;0.00;0.00;;;14.00;99.90;;;;;;4984366;28;21077;-62
2022/07/06 05:26:01;;;;;;;0.00;0.00;;;13.80;99.90;;;;;;4985320;28;20121;-66
2022/07/06 05:28:27;;;;;;;0.00;0.00;;;13.80;99.90;;;;;;4984569;28;20046;-63
2022/07/06 05:30:52;;;;;;;0.00;0.00;;;13.70;99.90;;;;;;4984727;28;20035;-62
2022/07/06 05:33:18;;;;;;;0.00;0.00;;;13.80;99.90;;;;;;4982176;28;20405;-61
2022/07/06 05:35:44;;;;;;;0.00;0.00;;;13.80;99.90;;;;;;4983789;28;20146;-62
2022/07/06 05:38:10;;;;;;;0.03;0.03;;;13.80;99.90;;;;;;4983980;28;20525;-65
2022/07/06 05:40:36;;;;;;;0.00;0.00;;;13.90;99.90;;;;;;4966767;28;20054;-63
2022/07/06 05:43:02;;;;;;;0.00;0.00;;;13.90;99.90;;;;;;4984430;28;20050;-62
2022/07/06 05:45:28;;;;;;;0.00;0.00;;;14.00;99.90;;;;;;4982267;28;20389;-61
2022/07/06 05:50:37;;;;;;;0.00;0.00;;;14.00;99.90;;;;;;4983840;28;20089;-62
2022/07/06 05:53:04;;;;;;;0.00;0.00;;;14.10;99.90;;;;;;4984494;28;20078;-62
2022/07/06 05:55:30;;;;;;;0.10;0.10;;;14.10;99.90;;;;;;4983187;28;20050;-62
2022/07/06 05:57:56;;;;;;;0.00;0.00;;;14.20;99.90;;;;;;4983761;28;20062;-61
2022/07/06 06:00:26;;;;;;;0.00;0.00;;;14.20;99.90;;;;;;4984412;28;20049;-63
2022/07/06 06:02:53;;;;;;;0.00;0.00;;;14.30;99.90;;;;;;4984145;28;20050;-61
2022/07/06 06:05:19;;;;;;;0.00;0.00;;;14.40;99.90;;;;;;4983884;28;20050;-62
2022/07/06 06:07:50;;;;;;;0.00;0.00;;;14.50;99.90;;;;;;4985154;28;20137;-62
2022/07/06 06:10:17;;;;;;;0.00;0.00;;;14.60;99.90;;;;;;4982667;28;20066;-64
2022/07/06 06:12:44;;;;;;;0.00;0.00;;;14.60;99.90;;;;;;4984844;28;20038;-61
2022/07/06 06:15:10;;;;;;;0.00;0.00;;;14.80;99.90;;;;;;4984750;28;20553;-63
2022/07/06 06:17:37;;;;;;;0.00;0.00;;;14.90;99.90;;;;;;4983902;28;20160;-63
2022/07/06 06:20:06;;;;;;;0.00;0.00;;;15.00;99.90;;;;;;4983715;28;20041;-62
2022/07/06 06:22:43;;;;;;;0.00;0.00;;;15.20;99.90;;;;;;4984329;28;20105;-62
2022/07/06 06:25:09;;;;;;;0.00;0.00;;;15.30;99.90;;;;;;4983813;28;20221;-62
2022/07/06 06:27:34;;;;;;;0.00;0.00;;;15.40;99.90;;;;;;4984111;28;20752;-62
2022/07/06 06:30:00;;;;;;;0.00;0.00;;;15.60;99.90;;;;;;4982827;28;20054;-62
2022/07/06 06:32:26;;;;;;;0.00;0.00;;;15.70;99.90;;;;;;4983700;28;20118;-64
2022/07/06 06:34:51;;;;;;;0.00;0.00;;;15.90;99.90;;;;;;4983030;28;20046;-62
2022/07/06 06:37:17;;;;;;;0.00;0.00;;;15.90;99.90;;;;;;4983767;28;20045;-61
2022/07/06 06:39:42;;;;;;;0.10;0.10;;;16.20;99.90;;;;;;4984333;28;20052;-61
2022/07/06 06:42:08;;;;;;;0.00;0.00;;;16.00;99.90;;;;;;4983882;28;20042;-62
2022/07/06 06:44:34;;;;;;;0.00;0.00;;;15.90;99.90;;;;;;4982657;28;20054;-63
2022/07/06 06:47:00;;;;;;;0.00;0.00;;;15.80;99.90;;;;;;4984205;28;20038;-61
2022/07/06 06:49:25;;;;;;;0.63;0.40;;;16.00;99.90;;;;;;4981636;28;20057;-62
2022/07/06 06:51:51;;;;;;;0.00;0.00;;;15.80;99.90;;;;;;4983508;28;20035;-62
2022/07/06 06:54:17;;;;;;;0.00;0.00;;;15.60;99.90;;;;;;4982369;28;20537;-62
2022/07/06 06:56:42;;;;;;;0.00;0.00;;;15.30;99.90;;;;;;4983992;28;20121;-62
2022/07/06 06:59:08;;;;;;;0.00;0.00;;;15.10;99.90;;;;;;4983640;28;20565;-65
2022/07/06 07:01:33;;;;;;;0.00;0.00;;;15.10;99.90;;;;;;4981910;28;20100;-62
2022/07/06 07:03:59;;;;;;;0.00;0.00;;;15.20;99.90;;;;;;4982892;28;20134;-62
2022/07/06 07:06:25;;;;;;;0.00;0.00;;;15.10;99.90;;;;;;4983315;28;20038;-62
2022/07/06 07:08:51;;;;;;;0.00;0.00;;;15.10;99.90;;;;;;4982008;28;20050;-64
2022/07/06 07:11:16;;;;;;;0.00;0.00;;;15.00;99.90;;;;;;4982726;28;20038;-61
2022/07/06 07:13:42;;;;;;;0.00;0.00;;;15.00;99.90;;;;;;4983995;28;20508;-62
2022/07/06 07:16:08;;;;;;;0.00;0.00;;;15.00;99.90;;;;;;4983178;28;20449;-63
2022/07/06 07:18:33;;;;;;;0.00;0.00;;;14.90;99.90;;;;;;4982493;28;20054;-62
2022/07/06 07:20:59;;;;;;;0.00;0.00;;;15.00;99.90;;;;;;4981888;28;20115;-63
2022/07/06 07:23:24;;;;;;;0.00;0.00;;;15.00;99.90;;;;;;4983395;28;20070;-62
2022/07/06 07:25:50;;;;;;;0.00;0.00;;;15.00;99.90;;;;;;4983579;28;20042;-62
2022/07/06 07:28:16;;;;;;;0.00;0.00;;;14.90;99.90;;;;;;4982648;28;20054;-62
2022/07/06 07:30:41;;;;;;;0.00;0.00;;;14.90;99.90;;;;;;4983366;28;20549;-62
2022/07/06 07:33:07;;;;;;;0.00;0.00;;;15.00;99.90;;;;;;4983044;28;20056;-63
2022/07/06 07:35:33;;;;;;;0.00;0.00;;;14.90;99.90;;;;;;4982285;28;20060;-62
2022/07/06 07:37:58;;;;;;;0.00;0.00;;;15.10;99.90;;;;;;4982773;28;20393;-62
2022/07/06 07:40:24;;;;;;;0.00;0.00;;;15.30;99.90;;;;;;4982584;28;20069;-63
2022/07/06 07:42:50;;;;;;;0.00;0.00;;;15.40;99.90;;;;;;4982889;28;20057;-62
2022/07/06 07:45:16;;;;;;;0.00;0.00;;;15.70;99.90;;;;;;4982410;28;20050;-62
2022/07/06 07:47:42;;;;;;;0.00;0.00;;;15.80;99.90;;;;;;4983145;28;20038;-62
2022/07/06 07:50:08;;;;;;;0.00;0.00;;;15.80;99.90;;;;;;4982482;28;20057;-65
2022/07/06 07:52:34;;;;;;;0.00;0.00;;;15.80;99.90;;;;;;4981117;28;20085;-63
2022/07/06 07:55:00;;;;;;;0.00;0.00;;;15.80;99.90;;;;;;4982390;28;20135;-62
2022/07/06 07:57:25;;;;;;;0.00;0.00;;;16.30;99.90;;;;;;4981572;28;20748;-63
2022/07/06 07:59:51;;;;;;;0.00;0.00;;;16.70;99.90;;;;;;4982741;28;20081;-63
2022/07/06 08:02:17;;;;;;;0.00;0.00;;;16.90;99.90;;;;;;4982102;28;20086;-61
2022/07/06 08:04:42;;;;;;;0.00;0.00;;;17.10;99.90;;;;;;4981884;28;20065;-62
2022/07/06 08:07:08;;;;;;;0.00;0.00;;;17.60;99.90;;;;;;4982676;28;20042;-63
2022/07/06 08:09:34;;;;;;;0.00;0.00;;;18.00;99.90;;;;;;4982251;28;20616;-62
2022/07/06 08:11:59;;;;;;;0.00;0.00;;;18.30;99.90;;;;;;4985557;28;20047;-62
2022/07/06 08:14:26;;;;;;;0.00;0.00;;;18.20;99.90;;;;;;4988526;28;20084;-63
2022/07/06 08:16:51;;;;;;;0.00;0.00;;;18.50;99.90;;;;;;4989177;28;20054;-63
2022/07/06 08:19:17;;;;;;;0.00;0.00;;;18.70;99.90;;;;;;4988351;28;20564;-63
2022/07/06 08:21:43;;;;;;;0.00;0.00;;;18.70;99.90;;;;;;4988860;28;20108;-62
2022/07/06 08:24:09;;;;;;;0.00;0.00;;;19.20;99.90;;;;;;4988947;28;20408;-63
2022/07/06 08:26:35;;;;;;;0.00;0.00;;;19.30;99.90;;;;;;4988752;28;20054;-62
2022/07/06 08:29:01;;;;;;;0.00;0.00;;;19.40;99.90;;;;;;4987555;28;20050;-62
2022/07/06 08:31:27;;;;;;;0.00;0.00;;;19.40;99.90;;;;;;4988152;28;20034;-63
2022/07/06 08:33:53;;;;;;;0.00;0.00;;;19.40;99.90;;;;;;4988200;28;20125;-64
2022/07/06 08:36:20;;;;;;;0.00;0.00;;;19.40;99.90;;;;;;4988693;28;20090;-62
2022/07/06 08:38:47;;;;;;;0.00;0.00;;;19.20;99.90;;;;;;4988824;28;20061;-62
2022/07/06 08:41:14;;;;;;;0.00;0.00;;;19.40;99.90;;;;;;4988945;28;20038;-63
2022/07/06 08:43:40;;;;;;;0.00;0.00;;;19.40;99.90;;;;;;4988534;28;20561;-63
2022/07/06 08:46:08;;;;;;;0.00;0.00;;;19.20;99.90;;;;;;4988966;28;20113;-62
2022/07/06 08:48:36;;;;;;;0.00;0.00;;;19.10;99.90;;;;;;4986284;28;20124;-63
2022/07/06 08:51:03;;;;;;;0.00;0.00;;;18.90;99.90;;;;;;4988726;28;20052;-63
2022/07/06 08:53:28;;;;;;;0.00;0.00;;;18.60;99.90;;;;;;4988552;28;20049;-62
2022/07/06 08:55:54;;;;;;;0.00;0.00;;;18.40;99.90;;;;;;4988570;28;20113;-64
2022/07/06 08:58:23;;;;;;;0.00;0.00;;;18.40;99.90;;;;;;4970809;28;20644;-67
2022/07/06 09:00:49;;;;;;;0.00;0.00;;;18.40;99.90;;;;;;4988510;28;20050;-67
2022/07/06 09:03:15;;;;;;;0.00;0.00;;;18.30;99.90;;;;;;4988987;28;20120;-64
2022/07/06 09:05:46;;;;;;;0.00;0.00;;;18.60;99.90;;;;;;4988073;28;20042;-67
2022/07/06 09:08:13;;;;;;;0.00;0.00;;;18.90;99.90;;;;;;4989092;28;20042;-67
2022/07/06 09:10:38;;;;;;;0.00;0.00;;;19.30;99.90;;;;;;4988507;28;20398;-67
2022/07/06 09:13:06;;;;;;;0.00;0.00;;;19.40;99.90;;;;;;4987932;28;20053;-69
2022/07/06 09:15:32;;;;;;;0.00;0.00;;;19.40;99.90;;;;;;4987471;28;20066;-67
2022/07/06 09:17:59;;;;;;;0.00;0.00;;;19.50;99.90;;;;;;4970053;28;20057;-66
2022/07/06 09:20:25;;;;;;;0.00;0.00;;;19.40;99.90;;;;;;4987035;28;20054;-69
2022/07/06 09:22:56;;;;;;;0.00;0.00;;;19.30;99.90;;;;;;4984948;28;20047;-68
2022/07/06 09:25:23;;;;;;;0.00;0.00;;;19.40;99.90;;;;;;4984750;28;20070;-69
2022/07/06 09:27:54;;;;;;;0.00;0.00;;;19.70;99.90;;;;;;4985627;28;20069;-66
2022/07/06 09:30:20;;;;;;;0.00;0.00;;;19.50;99.90;;;;;;4984707;28;20046;-67
2022/07/06 09:32:49;;;;;;;0.00;0.00;;;19.70;99.90;;;;;;4985314;28;20275;-68
2022/07/06 09:35:35;;;;;;;0.00;0.00;;;19.70;99.90;;;;;;4984434;28;20046;-66
2022/07/06 09:38:12;;;;;;;0.00;0.00;;;19.70;99.90;;;;;;4985290;28;20077;-67
2022/07/06 09:40:40;;;;;;;0.00;0.00;;;19.70;99.90;;;;;;4984919;28;20050;-67
2022/07/06 09:43:15;;;;;;;0.00;0.00;;;19.90;99.90;;;;;;4983054;28;20039;-67
2022/07/06 09:45:46;;;;;;;0.00;0.00;;;20.10;99.90;;;;;;4984622;28;20046;-67
2022/07/06 09:48:22;;;;;;;0.00;0.00;;;20.20;99.90;;;;;;4984816;28;20042;-67
2022/07/06 09:50:57;;;;;;;0.00;0.00;;;20.30;99.90;;;;;;4985070;28;20181;-67
2022/07/06 09:53:24;;;;;;;0.00;0.00;;;20.40;99.90;;;;;;4985261;28;20063;-67
2022/07/06 09:55:52;;;;;;;0.00;0.00;;;20.60;99.90;;;;;;4984285;28;20057;-67
2022/07/06 09:58:18;;;;;;;0.00;0.00;;;20.60;99.90;;;;;;4984923;28;20046;-67
2022/07/06 10:00:45;;;;;;;0.00;0.00;;;20.90;99.90;;;;;;4985101;28;20125;-67
2022/07/06 10:03:12;;;;;;;0.00;0.00;;;21.30;99.90;;;;;;4984583;28;20043;-68
2022/07/06 10:05:40;;;;;;;0.00;0.00;;;21.40;99.90;;;;;;4984018;28;20050;-67
2022/07/06 10:08:09;;;;;;;0.00;0.00;;;21.20;99.90;;;;;;4984567;28;20046;-67
2022/07/06 10:10:40;;;;;;;0.00;0.00;;;21.60;99.90;;;;;;4984057;28;20492;-67
2022/07/06 10:13:06;;;;;;;0.00;0.00;;;21.70;99.90;;;;;;4984409;28;20054;-68
2022/07/06 10:15:33;;;;;;;0.00;0.00;;;21.30;99.90;;;;;;4984684;28;20054;-67
2022/07/06 10:18:01;;;;;;;0.00;0.00;;;21.10;99.90;;;;;;4984656;28;20046;-67
2022/07/06 10:20:32;;;;;;;0.00;0.00;;;21.20;99.90;;;;;;4983222;28;20061;-67
2022/07/06 10:23:00;;;;;;;0.00;0.00;;;21.40;99.90;;;;;;4984275;28;20053;-67
2022/07/06 10:25:26;;;;;;;0.00;0.00;;;21.80;99.90;;;;;;4982872;28;20113;-67
2022/07/06 10:27:53;;;;;;;0.00;0.00;;;21.80;99.90;;;;;;4983923;28;20074;-69
2022/07/06 10:30:20;;;;;;;0.00;0.00;;;21.80;99.90;;;;;;4983786;28;20050;-69
2022/07/06 10:32:48;;;;;;;0.00;0.00;;;21.70;99.90;;;;;;4984139;28;20040;-62
2022/07/06 10:35:14;;;;;;;0.00;0.00;;;21.30;99.90;;;;;;4983756;28;20121;-65
2022/07/06 10:37:40;;;;;;;0.00;0.00;;;21.20;99.90;;;;;;4983394;28;20060;-70
2022/07/06 10:43:11;;;;;;;;;;;21.10;99.90;;;;;;4943347;29;20116;-71
2022/07/06 10:45:37;;;;;;;0.00;0.00;;;20.90;99.90;;;;;;4941759;29;19987;-65
2022/07/06 10:48:11;;;;;;;0.00;0.00;;;21.10;99.90;;;;;;4951161;28;20058;-67
2022/07/06 10:51:04;;;;;;;0.00;0.00;;;21.30;99.90;;;;;;4964592;28;20138;-68
2022/07/06 10:53:38;;;;;;;0.00;0.00;;;21.50;99.90;;;;;;4962447;28;20043;-60
2022/07/06 10:56:11;;;;;;;0.00;0.00;;;22.10;99.90;;;;;;4964306;28;20051;-61
2022/07/06 10:58:45;;;;;;;0.00;0.00;;;22.30;99.90;;;;;;4963900;28;20050;-68
2022/07/06 11:01:12;;;;;;;0.00;0.00;;;22.50;99.90;;;;;;4964158;28;20078;-68
2022/07/06 11:03:41;;;;;;;0.00;0.00;;;22.30;99.90;;;;;;4963257;28;20086;-73
2022/07/06 11:06:21;;;;;;;0.00;0.00;;;22.20;99.90;;;;;;4964717;28;20379;-68
2022/07/06 11:09:03;;;;;;;0.00;0.00;;;22.20;99.90;;;;;;4964304;28;20054;-68
2022/07/06 11:11:31;;;;;;;0.00;0.00;;;22.40;99.90;;;;;;4962698;28;20089;-69
2022/07/06 11:14:05;;;;;;;0.00;0.00;;;22.10;99.90;;;;;;4962691;28;20086;-68
2022/07/06 11:16:51;;;;;;;0.00;0.00;;;21.80;99.90;;;;;;4963926;28;20035;-70
2022/07/06 11:19:25;;;;;;;0.00;0.00;;;21.70;99.90;;;;;;4950887;28;20051;-68
2022/07/06 11:21:53;;;;;;;0.00;0.00;;;21.40;99.90;;;;;;4963934;28;20046;-69
2022/07/06 11:24:20;;;;;;;0.00;0.00;;;21.20;99.90;;;;;;4963830;28;20043;-68
2022/07/06 11:26:48;;;;;;;0.90;0.08;;;21.20;99.90;;;;;;4963627;28;20043;-69
2022/07/06 11:29:14;;;;;;;0.00;0.00;;;21.20;99.90;;;;;;4964235;28;20051;-69
2022/07/06 11:31:42;;;;;;;0.00;0.00;;;21.30;99.90;;;;;;4963820;28;20043;-69
2022/07/06 11:34:10;;;;;;;0.00;0.00;;;21.50;99.90;;;;;;4962733;28;20061;-69
2022/07/06 11:36:37;;;;;;;0.00;0.00;;;21.20;99.90;;;;;;4964049;28;20058;-69
2022/07/06 11:39:05;;;;;;;0.00;0.00;;;21.10;99.90;;;;;;4962334;28;20046;-68
2022/07/06 11:41:31;;;;;;;0.00;0.00;;;20.60;99.90;;;;;;4963471;28;20042;-69
2022/07/06 11:43:57;;;;;;;0.00;0.00;;;20.50;99.90;;;;;;4966330;28;20216;-68
2022/07/06 11:46:26;;;;;;;0.00;0.00;;;20.60;99.90;;;;;;4982106;28;20042;-69
2022/07/06 11:48:58;;;;;;;0.00;0.00;;;20.90;99.90;;;;;;4982551;28;20202;-69
2022/07/06 11:51:29;;;;;;;0.10;0.10;;;20.90;99.90;;;;;;4981929;28;20121;-69
2022/07/06 11:53:59;;;;;;;0.00;0.00;;;21.20;99.90;;;;;;4983065;28;20046;-70
2022/07/06 11:56:27;;;;;;;0.00;0.00;;;21.60;99.90;;;;;;4982772;28;20473;-69
2022/07/06 11:58:57;;;;;;;0.00;0.00;;;22.20;99.90;;;;;;4982717;28;20535;-69
2022/07/06 12:01:25;;;;;;;0.00;0.00;;;22.10;99.90;;;;;;4982554;28;20081;-69
2022/07/06 12:03:51;;;;;;;0.00;0.00;;;21.70;99.90;;;;;;4982453;28;20047;-69
2022/07/06 12:06:21;;;;;;;0.00;0.00;;;21.20;99.90;;;;;;4980413;28;20034;-69
2022/07/06 12:08:55;;;;;;;0.00;0.00;;;21.00;99.90;;;;;;4982541;28;20082;-69
2022/07/06 12:11:32;;;;;;;0.00;0.00;;;21.00;99.90;;;;;;4981303;28;20070;-69
2022/07/06 12:14:02;;;;;;;0.00;0.00;;;20.70;99.90;;;;;;4983031;28;20039;-69
2022/07/06 12:16:35;;;;;;;0.00;0.00;;;20.40;99.90;;;;;;4982541;28;20046;-69
2022/07/06 12:19:05;;;;;;;0.00;0.00;;;20.00;99.90;;;;;;4981288;28;20050;-69
2022/07/06 12:21:31;;;;;;;0.00;0.00;;;20.10;99.90;;;;;;4982457;28;20057;-70
2022/07/06 12:23:57;;;;;;;0.00;0.00;;;20.60;99.90;;;;;;4982686;28;20446;-68
2022/07/06 12:26:25;;;;;;;0.00;0.00;;;21.10;99.90;;;;;;4982811;28;20145;-69
2022/07/06 12:29:09;;;;;;;0.00;0.00;;;21.20;99.90;;;;;;4982393;28;20478;-69
2022/07/06 12:31:41;;;;;;;0.00;0.00;;;20.90;99.90;;;;;;4982294;28;20046;-69
2022/07/06 12:34:15;;;;;;;0.00;0.00;;;21.00;99.90;;;;;;4981192;28;20047;-69
2022/07/06 12:36:48;;;;;;;0.00;0.00;;;21.00;99.90;;;;;;4982827;28;20046;-70
2022/07/06 12:39:17;;;;;;;0.00;0.00;;;20.90;99.90;;;;;;4982728;28;20061;-69
2022/07/06 12:41:48;;;;;;;0.00;0.00;;;20.80;99.90;;;;;;4982546;28;20616;-70
2022/07/06 12:44:17;;;;;;;0.00;0.00;;;21.00;99.90;;;;;;4982188;28;20038;-69
2022/07/06 12:46:43;;;;;;;0.00;0.00;;;21.30;99.90;;;;;;4982434;28;20440;-68
2022/07/06 12:49:29;;;;;;;0.00;0.00;;;21.20;99.90;;;;;;4979793;28;20081;-69
2022/07/06 12:52:01;;;;;;;0.00;0.00;;;21.50;99.90;;;;;;4982362;28;20049;-62
2022/07/06 12:54:33;;;;;;;0.00;0.00;;;21.10;99.90;;;;;;4981518;28;20034;-69